createdAt,value
2019-01-24T08:53:48.307Z,37.51
2019-01-24T08:58:52.110Z,37.89
2019-01-24T09:03:55.897Z,37.97
2019-01-24T09:08:59.886Z,37.97
2019-01-24T09:14:03.682Z,38.32
2019-01-24T09:19:07.573Z,41.22
2019-01-24T09:24:11.385Z,42.46
2019-01-24T09:29:15.169Z,41.91
2019-01-24T09:34:18.994Z,42.06
2019-01-24T09:39:22.818Z,43.96
2019-01-24T09:44:26.652Z,43.32
2019-01-24T09:49:30.440Z,43.32
2019-01-24T09:54:34.277Z,43.59
2019-01-24T09:59:38.076Z,41.82
2019-01-24T10:04:41.871Z,41.82
2019-01-24T10:09:45.660Z,41.86
2019-01-24T10:14:49.484Z,42.25
2019-01-24T10:19:53.300Z,42.28
2019-01-24T10:24:57.085Z,42.28
2019-01-24T10:30:00.912Z,42.89
2019-01-24T10:35:04.817Z,42.73
2019-01-24T10:40:11.543Z,42.79
2019-01-24T10:45:16.579Z,42.20
2019-01-24T10:50:21.583Z,42.15
2019-01-24T10:55:26.818Z,42.15
2019-01-24T11:00:35.758Z,42.64
2019-01-24T11:05:39.598Z,42.64
2019-01-24T11:10:43.380Z,42.79
2019-01-24T11:15:47.172Z,43.07
2019-01-24T11:20:50.986Z,43.07
2019-01-24T11:25:54.800Z,43.37
2019-01-24T11:30:58.605Z,43.35
2019-01-24T11:36:02.392Z,43.82
2019-01-24T11:41:06.197Z,43.42
2019-01-24T11:46:09.987Z,44.13
2019-01-24T11:51:13.794Z,44.13
2019-01-24T11:56:17.607Z,44.51
2019-01-24T12:01:21.407Z,44.59
2019-01-24T12:06:25.220Z,44.55
2019-01-24T12:11:30.354Z,44.55
2019-01-24T12:16:34.313Z,44.24
2019-01-24T12:21:38.169Z,44.24
2019-01-24T12:26:41.979Z,44.29
2019-01-24T12:31:45.794Z,44.29
2019-01-24T12:36:49.690Z,44.43
2019-01-24T12:41:53.502Z,45.24
2019-01-24T12:46:57.334Z,45.38
2019-01-24T12:52:01.132Z,30.61
2019-01-24T12:57:04.937Z,30.61
2019-01-24T13:02:08.753Z,30.42
2019-01-24T13:07:18.390Z,28.68
2019-01-24T13:12:18.106Z,29.71
2019-01-24T13:17:21.888Z,29.78
2019-01-24T13:22:25.679Z,31.23
2019-01-24T13:27:29.612Z,31.69
2019-01-24T13:32:33.430Z,32.76
2019-01-24T13:37:37.252Z,34.66
2019-01-24T13:42:41.074Z,34.66
2019-01-24T13:47:44.878Z,35.25
2019-01-24T13:52:48.673Z,36.18
2019-01-24T13:57:52.483Z,36.53
2019-01-24T14:03:24.762Z,37.13
2019-01-24T14:08:28.612Z,37.18
2019-01-24T14:13:32.412Z,38.27
2019-01-24T14:18:36.231Z,38.27
2019-01-24T14:23:40.104Z,37.56
2019-01-24T14:28:44.033Z,38.80
2019-01-24T14:33:47.891Z,39.49
2019-01-24T14:38:52.006Z,39.49
2019-01-24T14:43:55.812Z,40.41
2019-01-24T14:48:59.773Z,41.00
2019-01-24T14:54:03.685Z,41.20
2019-01-24T14:59:07.708Z,40.53
2019-01-24T15:04:11.891Z,40.53
2019-01-24T15:09:15.693Z,40.99
2019-01-24T15:14:19.632Z,40.99
2019-01-24T15:19:23.561Z,41.32
2019-01-24T15:24:27.899Z,41.62
2019-01-24T15:29:32.301Z,41.59
2019-01-24T15:34:36.779Z,42.10
2019-01-24T15:39:41.440Z,42.74
2019-01-24T15:44:46.760Z,42.20
2019-01-24T15:49:51.633Z,42.20
2019-01-24T15:54:56.875Z,41.65
2019-01-24T16:00:01.834Z,41.65
2019-01-24T16:05:09.009Z,41.79
2019-01-24T16:10:15.017Z,41.87
2019-01-24T16:15:28.002Z,42.52
2019-01-24T16:20:33.010Z,42.27
2019-01-24T16:25:38.159Z,42.27
2019-01-24T16:30:42.797Z,43.13
2019-01-24T16:35:48.171Z,42.91
2019-01-24T16:40:53.565Z,43.34
2019-01-24T16:45:58.818Z,42.77
2019-01-24T16:51:03.656Z,42.53
2019-01-24T16:56:08.753Z,41.78
2019-01-24T17:01:19.751Z,41.78
2019-01-24T17:06:24.823Z,42.06
2019-01-24T17:11:29.482Z,41.84
2019-01-24T17:16:34.423Z,41.32
2019-01-24T17:21:38.699Z,41.18
2019-01-24T17:26:43.460Z,41.03
2019-01-24T17:31:48.310Z,41.03
2019-01-24T17:41:57.843Z,42.04
2019-01-24T17:47:03.320Z,41.91
2019-01-24T17:52:08.459Z,41.91
2019-01-24T17:57:13.476Z,41.66
2019-01-24T18:02:18.489Z,41.66
2019-01-24T18:07:23.701Z,41.88
2019-01-24T18:12:28.756Z,41.92
2019-01-24T18:17:33.806Z,42.31
2019-01-24T18:22:39.023Z,42.31
2019-01-24T18:27:43.974Z,41.88
2019-01-24T18:32:50.063Z,41.84
2019-01-24T18:37:55.837Z,41.84
2019-01-24T18:43:01.486Z,41.22
2019-01-24T18:48:07.393Z,41.63
2019-01-24T18:53:12.775Z,41.69
2019-01-24T18:58:18.919Z,41.34
2019-01-24T19:03:25.185Z,41.34
2019-01-24T19:08:30.938Z,41.57
2019-01-24T19:13:36.812Z,41.76
2019-01-24T19:18:42.687Z,41.58
2019-01-24T19:23:48.654Z,41.96
2019-01-24T19:28:54.723Z,41.63
2019-01-24T19:34:01.230Z,41.63
2019-01-24T19:39:08.722Z,41.67
2019-01-24T19:44:15.838Z,41.85
2019-01-24T19:49:21.620Z,41.71
2019-01-24T19:54:27.683Z,42.15
2019-01-24T19:59:33.645Z,42.16
2019-01-24T20:04:39.720Z,42.16
2019-01-24T20:09:45.829Z,41.90
2019-01-24T20:14:51.822Z,41.90
2019-01-24T20:19:57.835Z,41.98
2019-01-24T20:25:04.159Z,42.95
2019-01-24T20:30:12.658Z,42.97
2019-01-24T20:35:21.013Z,42.88
2019-01-24T20:40:28.948Z,43.12
2019-01-24T20:45:34.787Z,43.93
2019-01-24T20:50:39.888Z,43.93
2019-01-24T20:55:45.613Z,44.07
2019-01-24T21:00:50.801Z,44.09
2019-01-24T21:05:55.945Z,44.31
2019-01-24T21:11:01.226Z,44.31
2019-01-24T21:16:06.229Z,44.59
2019-01-24T21:21:10.813Z,44.59
2019-01-24T21:26:14.997Z,44.69
2019-01-24T21:31:19.385Z,44.87
2019-01-24T21:36:23.988Z,44.87
2019-01-24T21:41:28.457Z,44.51
2019-01-24T21:46:33.165Z,44.51
2019-01-24T21:51:37.307Z,44.95
2019-01-24T21:56:41.141Z,45.01
2019-01-24T22:01:45.133Z,45.50
2019-01-24T22:06:49.103Z,45.50
2019-01-24T22:11:53.015Z,45.09
2019-01-24T22:16:57.165Z,45.06
2019-01-24T22:22:00.980Z,45.65
2019-01-24T22:27:04.921Z,45.70
2019-01-24T22:32:08.747Z,45.70
2019-01-24T22:37:12.520Z,45.27
2019-01-24T22:42:16.318Z,45.27
2019-01-24T22:47:20.110Z,45.69
2019-01-24T22:52:23.917Z,45.49
2019-01-24T22:57:27.720Z,45.43
2019-01-24T23:02:32.328Z,45.43
2019-01-24T23:07:36.143Z,45.82
2019-01-24T23:12:39.939Z,45.78
2019-01-24T23:17:43.809Z,45.70
2019-01-24T23:22:47.596Z,45.70
2019-01-24T23:27:51.391Z,45.85
2019-01-24T23:32:55.281Z,45.89
2019-01-24T23:37:59.077Z,45.77
2019-01-24T23:43:02.867Z,46.38
2019-01-24T23:48:06.886Z,45.86
2019-01-24T23:53:10.686Z,45.86
2019-01-24T23:58:14.500Z,46.13
